createdAt,value
2019-01-09T00:00:56.504Z,94804
2019-01-09T00:02:06.058Z,94811
2019-01-09T00:03:15.641Z,94811
2019-01-09T00:04:25.205Z,94806
2019-01-09T00:05:34.791Z,94813
2019-01-09T00:06:44.371Z,94824
2019-01-09T00:07:53.934Z,94798
2019-01-09T00:09:02.480Z,94786
2019-01-09T00:10:12.072Z,94781
2019-01-09T00:11:21.670Z,94795
2019-01-09T00:12:31.208Z,94785
2019-01-09T00:13:40.785Z,94804
2019-01-09T00:14:50.351Z,94820
2019-01-09T00:15:59.923Z,94794
2019-01-09T00:17:09.467Z,94785
2019-01-09T00:18:19.066Z,94783
2019-01-09T00:19:28.647Z,94785
2019-01-09T00:20:38.236Z,94770
2019-01-09T00:21:47.797Z,94781
2019-01-09T00:22:57.360Z,94772
2019-01-09T00:24:06.975Z,94770
2019-01-09T00:25:16.537Z,94768
2019-01-09T00:26:26.091Z,94768
2019-01-09T00:27:35.704Z,94757
2019-01-09T00:28:45.271Z,94777
2019-01-09T00:29:54.821Z,94764
2019-01-09T00:31:04.359Z,94768
2019-01-09T00:32:13.933Z,94757
2019-01-09T00:33:23.517Z,94761
2019-01-09T00:34:33.081Z,94805
2019-01-09T00:35:42.629Z,94786
2019-01-09T00:36:52.238Z,94772
2019-01-09T00:38:01.763Z,94776
2019-01-09T00:39:11.327Z,94790
2019-01-09T00:40:20.879Z,94775
2019-01-09T00:41:30.416Z,94772
2019-01-09T00:42:39.966Z,94778
2019-01-09T00:43:48.508Z,94777
2019-01-09T00:44:58.057Z,94773
2019-01-09T00:46:07.642Z,94772
2019-01-09T00:47:17.184Z,94774
2019-01-09T00:48:26.748Z,94773
2019-01-09T00:49:36.306Z,94782
2019-01-09T00:50:45.835Z,94770
2019-01-09T00:51:55.387Z,94766
2019-01-09T00:53:04.934Z,94773
2019-01-09T00:54:14.534Z,94765
2019-01-09T00:55:24.102Z,94769
2019-01-09T00:56:32.621Z,94758
2019-01-09T00:57:42.174Z,94779
2019-01-09T00:58:51.715Z,94755
2019-01-09T01:00:01.262Z,94760
2019-01-09T01:01:10.829Z,94769
2019-01-09T01:02:20.359Z,94772
2019-01-09T01:03:29.930Z,94772
2019-01-09T01:04:39.497Z,94772
2019-01-09T01:05:49.046Z,94770
2019-01-09T01:06:58.592Z,94774
2019-01-09T01:08:08.170Z,94763
2019-01-09T01:09:17.700Z,94785
2019-01-09T01:10:27.285Z,94757
2019-01-09T01:11:36.820Z,94778
2019-01-09T01:12:46.365Z,94758
2019-01-09T01:13:55.913Z,94767
2019-01-09T01:15:05.443Z,94770
2019-01-09T01:16:15.042Z,94775
2019-01-09T01:17:24.601Z,94769
2019-01-09T01:18:34.147Z,94766
2019-01-09T01:19:43.686Z,94778
2019-01-09T01:20:53.270Z,94776
2019-01-09T01:22:02.838Z,94771
2019-01-09T01:23:11.386Z,94783
2019-01-09T01:24:20.917Z,94772
2019-01-09T01:25:30.438Z,94772
2019-01-09T01:26:40.030Z,94771
2019-01-09T01:27:49.587Z,94769
2019-01-09T01:28:59.130Z,94807
2019-01-09T01:30:08.661Z,94770
2019-01-09T01:31:18.235Z,94774
2019-01-09T01:32:27.760Z,94776
2019-01-09T01:33:37.314Z,94770
2019-01-09T01:34:46.854Z,94773
2019-01-09T01:35:56.396Z,94784
2019-01-09T01:37:05.967Z,94761
2019-01-09T01:38:15.535Z,94773
2019-01-09T01:39:25.061Z,94773
2019-01-09T01:40:34.604Z,94761
2019-01-09T01:41:44.262Z,94780
2019-01-09T01:42:53.822Z,94767
2019-01-09T01:44:03.385Z,94793
2019-01-09T01:45:12.930Z,94768
2019-01-09T01:46:22.582Z,94755
2019-01-09T01:47:32.137Z,94759
2019-01-09T01:48:41.700Z,94759
2019-01-09T01:49:51.253Z,94749
2019-01-09T01:51:00.907Z,94748
2019-01-09T01:52:10.519Z,94765
2019-01-09T01:53:20.058Z,94763
2019-01-09T01:54:29.686Z,94768
2019-01-09T01:55:39.204Z,94761
2019-01-09T01:56:47.696Z,94772
2019-01-09T01:57:57.277Z,94764
2019-01-09T01:59:06.856Z,94766
2019-01-09T02:00:16.537Z,94759
2019-01-09T02:01:26.062Z,94763
2019-01-09T02:02:35.586Z,94756
2019-01-09T02:03:45.113Z,94755
2019-01-09T02:04:54.635Z,94768
2019-01-09T02:06:04.340Z,94754
2019-01-09T02:07:14.779Z,94755
2019-01-09T02:08:24.358Z,94755
2019-01-09T02:09:33.875Z,94764
2019-01-09T02:10:43.419Z,94773
2019-01-09T02:11:52.987Z,94754
2019-01-09T02:13:02.553Z,94758
2019-01-09T02:14:12.184Z,94762
2019-01-09T02:15:21.736Z,94768
2019-01-09T02:16:31.292Z,94763
2019-01-09T02:17:40.835Z,94752
2019-01-09T02:18:50.358Z,94746
2019-01-09T02:19:59.924Z,94749
2019-01-09T02:21:09.479Z,94757
2019-01-09T02:22:18.992Z,94740
2019-01-09T02:23:28.552Z,94744
2019-01-09T02:24:38.106Z,94766
2019-01-09T02:25:47.742Z,94762
2019-01-09T02:26:57.329Z,94737
2019-01-09T02:28:06.896Z,94762
2019-01-09T02:29:16.381Z,94755
2019-01-09T02:30:25.962Z,94758
2019-01-09T02:31:35.537Z,94751
2019-01-09T02:32:45.069Z,94745
2019-01-09T02:33:54.638Z,94744
2019-01-09T02:35:04.167Z,94752
2019-01-09T02:36:13.931Z,94741
2019-01-09T02:37:23.315Z,94771
2019-01-09T02:38:32.836Z,94743
2019-01-09T02:39:42.462Z,94740
2019-01-09T02:40:52.170Z,94767
2019-01-09T02:42:01.714Z,94753
2019-01-09T02:43:11.386Z,94753
2019-01-09T02:44:21.003Z,94743
2019-01-09T02:45:31.698Z,94741
2019-01-09T02:46:41.283Z,94738
2019-01-09T02:47:51.079Z,94729
2019-01-09T02:49:00.763Z,94744
2019-01-09T02:50:10.564Z,94736
2019-01-09T02:51:20.267Z,94752
2019-01-09T02:52:29.908Z,94746
2019-01-09T02:53:39.548Z,94743
2019-01-09T02:54:49.172Z,94747
2019-01-09T02:55:58.840Z,94726
2019-01-09T02:57:08.522Z,94721
2019-01-09T02:58:18.103Z,94734
2019-01-09T02:59:27.871Z,94731
2019-01-09T03:00:37.574Z,94729
2019-01-09T03:01:47.214Z,94729
2019-01-09T03:02:56.898Z,94734
2019-01-09T03:04:06.584Z,94730
2019-01-09T03:05:16.234Z,94725
2019-01-09T03:06:25.785Z,94749
2019-01-09T03:07:35.362Z,94722
2019-01-09T03:08:44.908Z,94717
2019-01-09T03:09:54.482Z,94716
2019-01-09T03:11:04.028Z,94713
2019-01-09T03:12:13.576Z,94707
2019-01-09T03:13:23.105Z,94715
2019-01-09T03:14:32.636Z,94709
2019-01-09T03:15:42.166Z,94701
2019-01-09T03:16:51.683Z,94697
2019-01-09T03:18:01.220Z,94692
2019-01-09T03:19:10.760Z,94692
2019-01-09T03:20:20.324Z,94687
2019-01-09T03:21:29.863Z,94684
2019-01-09T03:22:39.381Z,94687
2019-01-09T03:23:48.893Z,94679
2019-01-09T03:24:58.420Z,94684
2019-01-09T03:26:07.959Z,94673
2019-01-09T03:27:17.591Z,94666
2019-01-09T03:28:27.130Z,94669
2019-01-09T03:29:36.654Z,94670
2019-01-09T03:30:46.220Z,94655
2019-01-09T03:31:55.765Z,94660
2019-01-09T03:33:05.312Z,94656
2019-01-09T03:34:14.827Z,94651
2019-01-09T03:35:24.357Z,94659
2019-01-09T03:36:33.874Z,94648
2019-01-09T03:37:43.394Z,94643
2019-01-09T03:38:52.933Z,94648
2019-01-09T03:40:02.459Z,94642
2019-01-09T03:41:11.995Z,94631
2019-01-09T03:42:21.532Z,94651
2019-01-09T03:43:31.084Z,94635
2019-01-09T03:44:40.624Z,94637
2019-01-09T03:45:50.177Z,94632
2019-01-09T03:46:59.693Z,94639
2019-01-09T03:48:09.222Z,94624
2019-01-09T03:49:18.746Z,94621
2019-01-09T03:50:28.283Z,94646
2019-01-09T03:51:37.860Z,94622
2019-01-09T03:52:47.367Z,94618
2019-01-09T03:53:56.930Z,94629
2019-01-09T03:55:06.517Z,94636
2019-01-09T03:56:16.062Z,94620
2019-01-09T03:57:25.625Z,94625
2019-01-09T03:58:35.153Z,94630
2019-01-09T03:59:44.666Z,94646
2019-01-09T04:00:54.220Z,94645
2019-01-09T04:02:03.791Z,94647
2019-01-09T04:03:14.320Z,94650
2019-01-09T04:04:23.831Z,94666
2019-01-09T04:05:33.370Z,94668
2019-01-09T04:06:42.910Z,94676
2019-01-09T04:07:52.444Z,94670
2019-01-09T04:09:01.971Z,94663
2019-01-09T04:10:11.496Z,94682
2019-01-09T04:11:21.018Z,94684
2019-01-09T04:12:30.536Z,94680
2019-01-09T04:13:40.073Z,94674
2019-01-09T04:14:49.634Z,94676
2019-01-09T04:15:59.164Z,94674
2019-01-09T04:17:08.688Z,94676
2019-01-09T04:18:18.189Z,94671
2019-01-09T04:19:27.725Z,94671
2019-01-09T04:20:37.258Z,94669
2019-01-09T04:21:46.798Z,94668
2019-01-09T04:22:56.320Z,94663
2019-01-09T04:24:05.856Z,94672
2019-01-09T04:25:15.420Z,94677
2019-01-09T04:26:24.957Z,94671
2019-01-09T04:27:34.538Z,94658
2019-01-09T04:28:44.056Z,94668
2019-01-09T04:29:53.578Z,94670
2019-01-09T04:31:03.094Z,94667
2019-01-09T04:32:12.666Z,94673
2019-01-09T04:33:22.198Z,94666
2019-01-09T04:34:31.748Z,94656
2019-01-09T04:35:41.324Z,94693
2019-01-09T04:36:51.472Z,94663
2019-01-09T04:38:00.423Z,94672
2019-01-09T04:39:09.952Z,94664
2019-01-09T04:40:19.466Z,94646
2019-01-09T04:41:29.057Z,94653
2019-01-09T04:42:38.652Z,94658
2019-01-09T04:43:48.246Z,94645
2019-01-09T04:44:57.795Z,94647
2019-01-09T04:46:07.361Z,94647
2019-01-09T04:47:16.919Z,94647
2019-01-09T04:48:26.431Z,94650
2019-01-09T04:49:35.966Z,94639
2019-01-09T04:50:45.619Z,94641
2019-01-09T04:51:55.199Z,94636
2019-01-09T04:53:04.721Z,94637
2019-01-09T04:54:14.240Z,94639
2019-01-09T04:55:23.751Z,94630
2019-01-09T04:56:33.294Z,94628
2019-01-09T04:57:42.810Z,94633
2019-01-09T04:58:52.332Z,94626
2019-01-09T05:00:02.856Z,94623
2019-01-09T05:01:12.379Z,94625
2019-01-09T05:02:21.944Z,94628
2019-01-09T05:03:31.489Z,94628
2019-01-09T05:04:41.009Z,94626
2019-01-09T05:05:52.129Z,94614
2019-01-09T05:07:01.654Z,94624
2019-01-09T05:08:11.185Z,94624
2019-01-09T05:09:20.724Z,94622
2019-01-09T05:10:31.247Z,94619
2019-01-09T05:11:40.813Z,94626
2019-01-09T05:12:50.343Z,94617
2019-01-09T05:13:59.863Z,94626
2019-01-09T05:15:09.382Z,94627
2019-01-09T05:16:18.947Z,94624
2019-01-09T05:17:28.486Z,94628
2019-01-09T05:18:38.018Z,94624
2019-01-09T05:19:47.525Z,94629
2019-01-09T05:20:57.102Z,94628
2019-01-09T05:22:06.635Z,94636
2019-01-09T05:23:16.176Z,94631
2019-01-09T05:24:25.718Z,94630
2019-01-09T05:25:35.242Z,94619
2019-01-09T05:26:44.778Z,94626
2019-01-09T05:27:54.295Z,94623
2019-01-09T05:29:03.813Z,94629
2019-01-09T05:30:13.369Z,94633
2019-01-09T05:31:22.912Z,94632
2019-01-09T05:32:32.469Z,94630
2019-01-09T05:33:42.977Z,94641
2019-01-09T05:34:52.555Z,94635
2019-01-09T05:36:02.093Z,94626
2019-01-09T05:37:11.915Z,94631
2019-01-09T05:38:22.881Z,94632
2019-01-09T05:39:39.521Z,94635
2019-01-09T05:40:42.893Z,94634
2019-01-09T05:41:52.490Z,94646
2019-01-09T05:43:02.124Z,94640
2019-01-09T05:44:11.720Z,94639
2019-01-09T05:45:21.313Z,94637
2019-01-09T05:46:30.897Z,94642
2019-01-09T05:47:40.569Z,94650
2019-01-09T05:48:50.214Z,94637
2019-01-09T05:49:59.813Z,94648
2019-01-09T05:51:09.368Z,94639
2019-01-09T05:52:19.012Z,94640
2019-01-09T05:53:28.593Z,94640
2019-01-09T05:54:38.245Z,94646
2019-01-09T05:55:47.902Z,94647
2019-01-09T05:56:57.566Z,94639
2019-01-09T05:58:07.149Z,94637
2019-01-09T05:59:16.769Z,94651
2019-01-09T06:00:26.375Z,94643
2019-01-09T06:01:36.012Z,94639
2019-01-09T06:02:45.674Z,94639
2019-01-09T06:03:55.293Z,94636
2019-01-09T06:05:04.934Z,94637
2019-01-09T06:06:14.525Z,94643
2019-01-09T06:07:24.159Z,94638
2019-01-09T06:08:32.785Z,94634
2019-01-09T06:09:42.434Z,94630
2019-01-09T06:10:52.033Z,94620
2019-01-09T06:12:01.643Z,94632
2019-01-09T06:13:11.236Z,94629
2019-01-09T06:14:20.848Z,94623
2019-01-09T06:15:30.480Z,94631
2019-01-09T06:16:40.210Z,94625
2019-01-09T06:17:49.964Z,94627
2019-01-09T06:18:59.732Z,94628
2019-01-09T06:20:09.411Z,94617
2019-01-09T06:21:18.957Z,94632
2019-01-09T06:22:28.481Z,94632
2019-01-09T06:23:38.038Z,94622
2019-01-09T06:24:47.641Z,94629
2019-01-09T06:25:57.197Z,94625
2019-01-09T06:27:06.725Z,94627
2019-01-09T06:28:16.377Z,94625
2019-01-09T06:29:25.922Z,94622
2019-01-09T06:30:35.536Z,94618
2019-01-09T06:31:45.082Z,94626
2019-01-09T06:32:54.693Z,94630
2019-01-09T06:34:04.346Z,94627
2019-01-09T06:35:13.896Z,94630
2019-01-09T06:36:23.410Z,94628
2019-01-09T06:37:33.017Z,94621
2019-01-09T06:38:42.602Z,94635
2019-01-09T06:39:52.172Z,94640
2019-01-09T06:41:01.737Z,94620
2019-01-09T06:42:11.301Z,94643
2019-01-09T06:43:20.888Z,94640
2019-01-09T06:44:30.493Z,94637
2019-01-09T06:45:40.083Z,94637
2019-01-09T06:46:49.654Z,94639
2019-01-09T06:47:59.337Z,94633
2019-01-09T06:49:08.920Z,94625
2019-01-09T06:50:18.499Z,94624
2019-01-09T06:51:28.086Z,94627
2019-01-09T06:52:37.674Z,94628
2019-01-09T06:53:47.278Z,94627
2019-01-09T06:54:56.819Z,94624
2019-01-09T06:56:06.389Z,94620
2019-01-09T06:57:15.922Z,94626
2019-01-09T06:58:25.601Z,94622
2019-01-09T06:59:35.031Z,94618
2019-01-09T07:00:44.665Z,94618
2019-01-09T07:01:54.195Z,94621
2019-01-09T07:03:03.768Z,94624
2019-01-09T07:04:13.395Z,94620
2019-01-09T07:05:22.920Z,94625
2019-01-09T07:06:32.418Z,94625
2019-01-09T07:07:41.959Z,94631
2019-01-09T07:08:51.564Z,94630
2019-01-09T07:10:01.305Z,94628
2019-01-09T07:11:10.617Z,94619
2019-01-09T07:12:20.217Z,94632
2019-01-09T07:13:29.766Z,94635
2019-01-09T07:14:39.324Z,94636
2019-01-09T07:15:48.868Z,94634
2019-01-09T07:16:58.395Z,94636
2019-01-09T07:18:08.000Z,94640
2019-01-09T07:19:17.556Z,94634
2019-01-09T07:20:27.065Z,94638
2019-01-09T07:21:45.159Z,94627
2019-01-09T07:22:48.094Z,94640
2019-01-09T07:23:57.648Z,94632
2019-01-09T07:25:07.170Z,94638
2019-01-09T07:26:16.706Z,94636
2019-01-09T07:27:26.220Z,94629
2019-01-09T07:28:35.753Z,94634
2019-01-09T07:29:45.259Z,94640
2019-01-09T07:30:54.787Z,94636
2019-01-09T07:32:04.310Z,94640
2019-01-09T07:33:13.854Z,94634
2019-01-09T07:34:23.396Z,94637
2019-01-09T07:35:32.929Z,94637
2019-01-09T07:36:42.476Z,94631
2019-01-09T07:37:52.003Z,94636
2019-01-09T07:39:01.644Z,94643
2019-01-09T07:40:10.186Z,94630
2019-01-09T07:41:19.698Z,94638
2019-01-09T07:42:29.241Z,94645
2019-01-09T07:43:38.798Z,94639
2019-01-09T07:44:48.313Z,94646
2019-01-09T07:45:57.824Z,94646
2019-01-09T07:47:07.361Z,94640
2019-01-09T07:48:16.909Z,94655
2019-01-09T07:49:26.462Z,94637
2019-01-09T07:50:36.010Z,94642
2019-01-09T07:51:45.567Z,94641
2019-01-09T07:52:55.116Z,94649
2019-01-09T07:54:04.652Z,94650
2019-01-09T07:55:14.191Z,94642
2019-01-09T07:56:23.731Z,94643
2019-01-09T07:57:33.272Z,94632
2019-01-09T07:58:42.818Z,94637
2019-01-09T07:59:52.351Z,94636
2019-01-09T08:01:01.889Z,94632
2019-01-09T08:02:11.418Z,94640
2019-01-09T08:03:20.974Z,94636
2019-01-09T08:04:32.390Z,94633
2019-01-09T08:05:40.058Z,94635
2019-01-09T08:06:49.597Z,94631
2019-01-09T08:07:59.130Z,94634
2019-01-09T08:09:08.706Z,94638
2019-01-09T08:10:18.225Z,94645
2019-01-09T08:11:27.740Z,94655
2019-01-09T08:12:37.262Z,94657
2019-01-09T08:13:46.809Z,94661
2019-01-09T08:14:56.311Z,94670
2019-01-09T08:16:05.872Z,94673
2019-01-09T08:17:15.398Z,94652
2019-01-09T08:18:24.914Z,94676
2019-01-09T08:19:34.453Z,94670
2019-01-09T08:20:43.982Z,94675
2019-01-09T08:21:53.505Z,94663
2019-01-09T08:23:03.025Z,94667
2019-01-09T08:24:12.561Z,94662
2019-01-09T08:25:21.081Z,94672
2019-01-09T08:27:58.070Z,94668
2019-01-09T08:29:07.638Z,94667
2019-01-09T08:30:17.149Z,94658
2019-01-09T08:31:26.741Z,94666
2019-01-09T08:32:36.277Z,94669
2019-01-09T08:33:45.843Z,94675
2019-01-09T08:34:55.380Z,94669
2019-01-09T08:36:04.915Z,94658
2019-01-09T08:37:14.479Z,94671
2019-01-09T08:38:24.007Z,94676
2019-01-09T08:39:33.558Z,94678
2019-01-09T08:40:43.098Z,94674
2019-01-09T08:41:52.615Z,94684
2019-01-09T08:43:02.173Z,94686
2019-01-09T08:44:11.742Z,94684
2019-01-09T08:45:21.282Z,94691
2019-01-09T08:46:30.814Z,94690
2019-01-09T08:47:40.333Z,94684
2019-01-09T08:48:49.858Z,94686
2019-01-09T08:49:59.378Z,94687
2019-01-09T08:51:08.908Z,94686
2019-01-09T08:52:18.455Z,94691
2019-01-09T08:53:28.001Z,94688
2019-01-09T08:54:37.524Z,94689
2019-01-09T08:55:47.063Z,94690
2019-01-09T08:56:56.616Z,94694
2019-01-09T08:58:06.157Z,94698
2019-01-09T08:59:15.734Z,94706
2019-01-09T09:00:25.275Z,94698
2019-01-09T09:01:34.812Z,94710
2019-01-09T09:02:44.364Z,94706
2019-01-09T09:03:53.917Z,94708
2019-01-09T09:05:03.446Z,94713
2019-01-09T09:06:12.981Z,94717
2019-01-09T09:07:22.503Z,94721
2019-01-09T09:08:32.033Z,94710
2019-01-09T09:09:41.562Z,94717
2019-01-09T09:10:51.119Z,94729
2019-01-09T09:12:00.668Z,94729
2019-01-09T09:13:10.207Z,94727
2019-01-09T09:14:19.744Z,94735
2019-01-09T09:15:29.294Z,94726
2019-01-09T09:16:38.820Z,94731
2019-01-09T09:17:48.365Z,94740
2019-01-09T09:18:57.894Z,94733
2019-01-09T09:20:07.420Z,94743
2019-01-09T09:21:16.947Z,94725
2019-01-09T09:22:26.498Z,94736
2019-01-09T09:23:36.033Z,94738
2019-01-09T09:24:45.574Z,94735
2019-01-09T09:25:55.096Z,94733
2019-01-09T09:27:04.618Z,94733
2019-01-09T09:28:14.142Z,94735
2019-01-09T09:29:23.696Z,94736
2019-01-09T09:30:34.201Z,94734
2019-01-09T09:31:43.743Z,94741
2019-01-09T09:32:53.284Z,94744
2019-01-09T09:34:02.837Z,94737
2019-01-09T09:35:12.386Z,94742
2019-01-09T09:36:21.933Z,94745
2019-01-09T09:37:31.474Z,94734
2019-01-09T09:38:41.030Z,94740
2019-01-09T09:39:50.617Z,94740
2019-01-09T09:41:00.167Z,94739
2019-01-09T09:42:09.736Z,94742
2019-01-09T09:43:19.252Z,94738
2019-01-09T09:44:28.829Z,94742
2019-01-09T09:45:38.376Z,94739
2019-01-09T09:46:47.920Z,94743
2019-01-09T09:47:57.462Z,94748
2019-01-09T09:49:06.980Z,94751
2019-01-09T09:50:16.519Z,94752
2019-01-09T09:51:26.051Z,94750
2019-01-09T09:52:35.602Z,94745
2019-01-09T09:53:45.125Z,94760
2019-01-09T09:54:54.803Z,94752
2019-01-09T09:56:04.354Z,94745
2019-01-09T09:57:13.898Z,94744
2019-01-09T09:58:23.475Z,94743
2019-01-09T09:59:33.037Z,94745
2019-01-09T10:00:42.578Z,94746
2019-01-09T10:01:52.086Z,94743
2019-01-09T10:03:01.619Z,94736
2019-01-09T10:04:11.128Z,94745
2019-01-09T10:05:20.682Z,94751
2019-01-09T10:06:30.221Z,94746
2019-01-09T10:07:39.749Z,94742
2019-01-09T10:08:49.282Z,94749
2019-01-09T10:09:58.843Z,94747
2019-01-09T10:11:08.372Z,94741
2019-01-09T10:12:17.937Z,94741
2019-01-09T10:13:27.473Z,94746
2019-01-09T10:14:37.015Z,94739
2019-01-09T10:15:45.567Z,94748
2019-01-09T10:16:54.086Z,94740
2019-01-09T10:18:03.627Z,94743
2019-01-09T10:19:13.146Z,94748
2019-01-09T10:20:22.685Z,94736
2019-01-09T10:21:32.257Z,94739
2019-01-09T10:22:41.801Z,94741
2019-01-09T10:23:51.424Z,94743
2019-01-09T10:25:01.056Z,94743
2019-01-09T10:26:10.474Z,94747
2019-01-09T10:27:20.028Z,94741
2019-01-09T10:28:29.581Z,94733
2019-01-09T10:29:39.132Z,94739
2019-01-09T10:30:48.664Z,94741
2019-01-09T10:31:59.223Z,94731
2019-01-09T10:33:07.709Z,94739
2019-01-09T10:34:17.225Z,94743
2019-01-09T10:35:26.799Z,94741
2019-01-09T10:36:36.304Z,94738
2019-01-09T10:37:45.822Z,94740
2019-01-09T10:38:55.334Z,94733
2019-01-09T10:40:04.873Z,94742
2019-01-09T10:41:14.403Z,94731
2019-01-09T10:42:23.935Z,94737
2019-01-09T10:43:33.474Z,94728
2019-01-09T10:44:43.026Z,94732
2019-01-09T10:45:52.550Z,94732
2019-01-09T10:47:02.077Z,94733
2019-01-09T10:48:11.678Z,94738
2019-01-09T10:49:21.221Z,94731
2019-01-09T10:50:30.790Z,94731
2019-01-09T10:51:40.329Z,94728
2019-01-09T10:52:49.858Z,94730
2019-01-09T10:54:00.639Z,94731
2019-01-09T10:55:09.014Z,94737
2019-01-09T10:56:18.560Z,94731
2019-01-09T10:57:28.159Z,94728
2019-01-09T10:58:37.872Z,94728
2019-01-09T10:59:47.428Z,94722
2019-01-09T11:00:56.978Z,94723
2019-01-09T11:02:06.517Z,94720
2019-01-09T11:03:16.071Z,94721
2019-01-09T11:04:25.605Z,94716
2019-01-09T11:05:35.142Z,94724
2019-01-09T11:06:44.689Z,94719
2019-01-09T11:07:54.217Z,94722
2019-01-09T11:09:03.746Z,94718
2019-01-09T11:10:13.305Z,94717
2019-01-09T11:11:22.807Z,94722
2019-01-09T11:12:32.334Z,94720
2019-01-09T11:13:41.852Z,94720
2019-01-09T11:14:51.402Z,94722
2019-01-09T11:16:00.946Z,94722
2019-01-09T11:17:10.461Z,94720
2019-01-09T11:18:19.965Z,94718
2019-01-09T11:19:29.494Z,94725
2019-01-09T11:20:39.076Z,94717
2019-01-09T11:21:48.612Z,94717
2019-01-09T11:22:58.243Z,94716
2019-01-09T11:24:07.642Z,94719
2019-01-09T11:25:16.225Z,94714
2019-01-09T11:26:25.783Z,94723
2019-01-09T11:27:34.340Z,94715
2019-01-09T11:28:43.865Z,94712
2019-01-09T11:29:53.411Z,94718
2019-01-09T11:31:02.970Z,94713
2019-01-09T11:32:12.491Z,94711
2019-01-09T11:33:22.035Z,94709
2019-01-09T11:34:31.610Z,94714
2019-01-09T11:35:41.172Z,94717
2019-01-09T11:36:50.694Z,94711
2019-01-09T11:38:00.225Z,94713
2019-01-09T11:39:09.816Z,94706
2019-01-09T11:40:19.354Z,94704
2019-01-09T11:41:29.022Z,94710
2019-01-09T11:42:38.520Z,94707
2019-01-09T11:43:48.088Z,94704
2019-01-09T11:44:57.623Z,94711
2019-01-09T11:46:07.159Z,94703
2019-01-09T11:47:16.668Z,94702
2019-01-09T11:48:26.183Z,94707
2019-01-09T11:49:35.772Z,94704
2019-01-09T11:50:45.302Z,94712
2019-01-09T11:51:54.832Z,94713
2019-01-09T11:53:04.382Z,94709
2019-01-09T11:54:13.932Z,94714
2019-01-09T11:55:23.462Z,94703
2019-01-09T11:56:33.032Z,94705
2019-01-09T11:57:42.560Z,94701
2019-01-09T11:58:52.117Z,94701
2019-01-09T12:00:02.650Z,94704
2019-01-09T12:01:12.210Z,94698
2019-01-09T12:02:22.327Z,94701
2019-01-09T12:03:31.286Z,94700
2019-01-09T12:04:40.798Z,94704
2019-01-09T12:05:50.371Z,94699
2019-01-09T12:06:59.908Z,94705
2019-01-09T12:08:09.460Z,94699
2019-01-09T12:09:19.067Z,94703
2019-01-09T12:10:30.086Z,94702
2019-01-09T12:11:38.157Z,94707
2019-01-09T12:12:47.705Z,94706
2019-01-09T12:13:57.216Z,94709
2019-01-09T12:15:06.766Z,94702
2019-01-09T12:16:16.342Z,94702
2019-01-09T12:17:25.907Z,94701
2019-01-09T12:18:35.439Z,94708
2019-01-09T12:19:44.984Z,94704
2019-01-09T12:20:54.548Z,94702
2019-01-09T12:22:04.088Z,94702
2019-01-09T12:23:13.682Z,94695
2019-01-09T12:24:23.196Z,94703
2019-01-09T12:25:32.865Z,94704
2019-01-09T12:26:42.335Z,94703
2019-01-09T12:27:52.840Z,94699
2019-01-09T12:29:02.363Z,94704
2019-01-09T12:30:11.880Z,94705
2019-01-09T12:31:21.442Z,94699
2019-01-09T12:32:30.980Z,94704
2019-01-09T12:33:40.529Z,94699
2019-01-09T12:34:50.064Z,94704
2019-01-09T12:35:59.643Z,94709
2019-01-09T12:37:09.221Z,94705
2019-01-09T12:38:18.712Z,94711
2019-01-09T12:39:28.250Z,94707
2019-01-09T12:40:37.826Z,94714
2019-01-09T12:41:47.413Z,94715
2019-01-09T12:42:57.021Z,94713
2019-01-09T12:44:06.595Z,94713
2019-01-09T12:45:16.125Z,94712
2019-01-09T12:46:25.666Z,94727
2019-01-09T12:47:35.242Z,94717
2019-01-09T12:48:44.794Z,94717
2019-01-09T12:49:54.372Z,94720
2019-01-09T12:51:03.937Z,94720
2019-01-09T12:52:12.463Z,94718
2019-01-09T12:53:22.057Z,94720
2019-01-09T12:54:32.597Z,94715
2019-01-09T12:55:42.155Z,94724
2019-01-09T12:56:51.717Z,94712
2019-01-09T12:58:01.289Z,94715
2019-01-09T12:59:10.834Z,94723
2019-01-09T13:00:21.368Z,94719
2019-01-09T13:01:30.949Z,94718
2019-01-09T13:02:40.484Z,94724
2019-01-09T13:03:50.044Z,94723
2019-01-09T13:04:59.702Z,94723
2019-01-09T13:06:09.232Z,94729
2019-01-09T13:07:18.800Z,94723
2019-01-09T13:08:28.332Z,94733
2019-01-09T13:09:37.896Z,94730
2019-01-09T13:10:47.452Z,94738
2019-01-09T13:11:56.994Z,94744
2019-01-09T13:13:06.572Z,94737
2019-01-09T13:14:16.143Z,94723
2019-01-09T13:15:25.693Z,94735
2019-01-09T13:16:35.247Z,94735
2019-01-09T13:17:45.758Z,94745
2019-01-09T13:18:55.281Z,94744
2019-01-09T13:20:05.822Z,94738
2019-01-09T13:21:15.392Z,94735
2019-01-09T13:22:24.923Z,94741
2019-01-09T13:23:34.502Z,94744
2019-01-09T13:24:44.028Z,94739
2019-01-09T13:25:53.584Z,94740
2019-01-09T13:27:03.164Z,94744
2019-01-09T13:28:12.716Z,94749
2019-01-09T13:29:22.262Z,94757
2019-01-09T13:30:31.791Z,94752
2019-01-09T13:31:41.409Z,94759
2019-01-09T13:32:51.013Z,94755
2019-01-09T13:34:00.580Z,94762
2019-01-09T13:35:10.102Z,94767
2019-01-09T13:36:20.661Z,94768
2019-01-09T13:37:30.208Z,94764
2019-01-09T13:38:39.723Z,94769
2019-01-09T13:39:48.244Z,94767
2019-01-09T13:40:57.794Z,94767
2019-01-09T13:42:07.366Z,94769
2019-01-09T13:43:16.934Z,94767
2019-01-09T13:44:26.469Z,94768
2019-01-09T13:45:36.019Z,94768
2019-01-09T13:46:45.580Z,94769
2019-01-09T13:47:55.166Z,94774
2019-01-09T13:49:04.942Z,94768
2019-01-09T13:50:14.581Z,94776
2019-01-09T13:51:24.103Z,94778
2019-01-09T13:52:33.819Z,94780
2019-01-09T13:53:43.414Z,94781
2019-01-09T13:54:52.973Z,94776
2019-01-09T13:56:02.529Z,94778
2019-01-09T13:57:12.047Z,94776
2019-01-09T13:58:21.772Z,94778
2019-01-09T13:59:31.367Z,94778
2019-01-09T14:00:40.949Z,94778
2019-01-09T14:01:50.547Z,94786
2019-01-09T14:03:00.058Z,94780
2019-01-09T14:04:09.577Z,94787
2019-01-09T14:05:19.130Z,94784
2019-01-09T14:06:28.683Z,94786
2019-01-09T14:07:38.252Z,94786
2019-01-09T14:08:47.803Z,94787
2019-01-09T14:09:57.336Z,94789
2019-01-09T14:11:06.957Z,94790
2019-01-09T14:12:16.562Z,94792
2019-01-09T14:13:26.061Z,94788
2019-01-09T14:14:35.632Z,94794
2019-01-09T14:15:45.183Z,94794
2019-01-09T14:16:54.786Z,94800
2019-01-09T14:18:04.373Z,94790
2019-01-09T14:19:13.975Z,94800
2019-01-09T14:20:24.513Z,94792
2019-01-09T14:21:34.029Z,94802
2019-01-09T14:22:43.670Z,94798
2019-01-09T14:23:53.244Z,94794
2019-01-09T14:25:02.784Z,94803
2019-01-09T14:26:12.338Z,94796
2019-01-09T14:27:21.925Z,94802
2019-01-09T14:28:31.495Z,94802
2019-01-09T14:29:41.066Z,94802
2019-01-09T14:30:50.602Z,94814
2019-01-09T14:32:00.197Z,94809
2019-01-09T14:33:09.813Z,94806
2019-01-09T14:34:19.358Z,94811
2019-01-09T14:35:28.923Z,94815
2019-01-09T14:36:38.488Z,94814
2019-01-09T14:37:49.102Z,94820
2019-01-09T14:38:58.615Z,94821
2019-01-09T14:40:08.146Z,94824
2019-01-09T14:41:17.687Z,94827
2019-01-09T14:42:27.296Z,94829
2019-01-09T14:43:36.817Z,94833
2019-01-09T14:44:46.343Z,94828
2019-01-09T14:45:55.925Z,94829
2019-01-09T14:47:05.534Z,94829
2019-01-09T14:48:15.121Z,94838
2019-01-09T14:49:24.635Z,94834
2019-01-09T14:50:34.236Z,94836
2019-01-09T14:51:43.859Z,94841
2019-01-09T14:52:53.408Z,94840
2019-01-09T14:54:02.955Z,94834
2019-01-09T14:55:12.477Z,94838
2019-01-09T14:56:22.001Z,94835
2019-01-09T14:57:31.554Z,94837